Time;durP1;ratioP1;P1;durP2;ratioP2;P2;SDS_P1;SDS_P2;PMS_P1;PMS_P2;Temp;Humidity;BMP_temperature;BMP_pressure;BME280_temperature;BME280_humidity;BME280_pressure;Samples;Min_cycle;Max_cycle;Signal;HPM_P1;HPM_P2
2023/12/17 00:00:59;;;;;;;;;0.00;0.00;;;;;7.33;100.00;103811.09;5057313;28;46140;-78
2023/12/17 00:03:25;;;;;;;;;0.00;0.00;;;;;7.31;100.00;103809.31;5075687;28;45491;-78
2023/12/17 00:05:51;;;;;;;;;0.00;0.00;;;;;7.30;100.00;103799.75;5075884;28;45489;-78
2023/12/17 00:08:19;;;;;;;;;1.50;1.50;;;;;7.31;100.00;103796.34;5061161;28;45353;-78
2023/12/17 00:10:45;;;;;;;;;0.00;0.00;;;;;7.30;100.00;103795.47;5079392;28;46431;-79
2023/12/17 00:13:10;;;;;;;;;0.00;0.00;;;;;7.30;100.00;103804.94;5060748;28;45515;-78
2023/12/17 00:15:35;;;;;;;;;0.00;0.00;;;;;7.29;100.00;103801.47;5077942;28;70453;-79
2023/12/17 00:18:01;;;;;;;;;0.00;0.00;;;;;7.30;100.00;103802.34;5059863;28;69813;-78
2023/12/17 00:20:27;;;;;;;;;0.00;0.00;;;;;7.29;100.00;103796.28;5061140;28;47056;-78
2023/12/17 00:22:52;;;;;;;;;13.00;13.00;;;;;7.26;100.00;103803.97;5078581;28;46799;-79
2023/12/17 00:25:17;;;;;;;;;0.00;0.00;;;;;7.25;100.00;103806.50;5061253;28;45289;-77
2023/12/17 00:27:43;;;;;;;;;0.00;0.00;;;;;7.26;100.00;103808.25;5078499;28;68169;-78
2023/12/17 00:30:08;;;;;;;;;0.00;0.00;;;;;7.27;100.00;103805.72;5059138;28;73897;-78
2023/12/17 00:32:34;;;;;;;;;0.00;0.00;;;;;7.26;100.00;103810.84;5060441;28;45361;-79
2023/12/17 00:34:59;;;;;;;;;0.00;0.00;;;;;7.27;100.00;103817.81;5060040;28;68312;-78
2023/12/17 00:37:24;;;;;;;;;31.00;24.00;;;;;7.28;100.00;103819.56;5059637;28;69306;-78
2023/12/17 00:39:50;;;;;;;;;0.00;0.00;;;;;7.29;100.00;103821.34;5078690;28;46139;-78
2023/12/17 00:42:15;;;;;;;;;0.00;0.00;;;;;7.32;100.00;103821.44;5078109;28;71726;-79
2023/12/17 00:44:40;;;;;;;;;0.00;0.00;;;;;7.35;100.00;103826.72;5078494;28;45294;-78
2023/12/17 00:47:06;;;;;;;;;0.00;0.00;;;;;7.39;100.00;103832.88;5079160;28;45348;-78
2023/12/17 00:49:31;;;;;;;;;0.00;0.00;;;;;7.40;100.00;103821.69;5066957;28;75474;-78
2023/12/17 00:51:56;;;;;;;;;0.00;0.00;;;;;7.41;100.00;103828.63;5077511;28;73575;-79
2023/12/17 00:54:21;;;;;;;;;0.00;0.00;;;;;7.42;100.00;103833.88;5078976;28;45478;-78
2023/12/17 00:56:47;;;;;;;;;6.00;6.00;;;;;7.43;100.00;103842.53;5078146;28;52555;-78
2023/12/17 00:59:12;;;;;;;;;0.00;0.00;;;;;7.44;100.00;103833.94;5077328;28;69477;-78
2023/12/17 01:01:38;;;;;;;;;22.33;20.00;;;;;7.42;100.00;103843.38;5077670;28;72871;-79
2023/12/17 01:04:04;;;;;;;;;8.25;8.25;;;;;7.44;100.00;103854.66;5060320;28;45416;-78
2023/12/17 01:06:29;;;;;;;;;0.00;0.00;;;;;7.45;100.00;103854.72;5066062;28;45342;-78
2023/12/17 01:08:54;;;;;;;;;10.00;10.00;;;;;7.46;100.00;103863.38;5046762;28;46200;-78
2023/12/17 01:11:20;;;;;;;;;12.00;12.00;;;;;7.45;100.00;103861.63;5077333;28;69890;-78
2023/12/17 01:13:45;;;;;;;;;0.00;0.00;;;;;7.45;100.00;103853.84;5059661;28;56114;-78
2023/12/17 01:16:10;;;;;;;;;6.00;6.00;;;;;7.47;100.00;103854.78;5077295;28;64961;-78
2023/12/17 01:18:36;;;;;;;;;0.00;0.00;;;;;7.45;100.00;103862.50;5058291;28;74570;-79
2023/12/17 01:21:01;;;;;;;;;0.00;0.00;;;;;7.46;100.00;103858.19;5058947;28;71391;-78
2023/12/17 01:23:27;;;;;;;;;0.00;0.00;;;;;7.45;100.00;103859.91;5078149;28;45378;-79
2023/12/17 01:25:52;;;;;;;;;0.00;0.00;;;;;7.43;100.00;103851.19;5078232;28;45353;-79
2023/12/17 01:28:17;;;;;;;;;0.00;0.00;;;;;7.44;100.00;103855.53;5077445;28;46934;-78
2023/12/17 01:30:43;;;;;;;;;8.00;8.00;;;;;7.44;100.00;103854.66;5076715;28;72569;-78
2023/12/17 01:33:08;;;;;;;;;0.00;0.00;;;;;7.42;100.00;103845.97;5076965;28;68530;-79
2023/12/17 01:35:33;;;;;;;;;0.00;0.00;;;;;7.41;100.00;103849.38;5077029;28;70550;-79
2023/12/17 01:37:58;;;;;;;;;0.00;0.00;;;;;7.39;100.00;103841.53;5077472;28;75494;-78
2023/12/17 01:40:24;;;;;;;;;0.00;0.00;;;;;7.35;100.00;103835.38;5059069;28;73255;-78
2023/12/17 01:42:52;;;;;;;;;0.00;0.00;;;;;7.35;100.00;103844.84;5076728;28;68609;-78
2023/12/17 01:45:18;;;;;;;;;0.00;0.00;;;;;7.30;100.00;103839.53;5076972;28;65547;-78
2023/12/17 01:47:44;;;;;;;;;0.00;0.00;;;;;7.28;100.00;103837.69;5059382;28;45437;-78
2023/12/17 01:50:09;;;;;;;;;0.00;0.00;;;;;7.25;100.00;103833.31;5059144;28;45441;-77
2023/12/17 01:52:35;;;;;;;;;0.00;0.00;;;;;7.22;100.00;103834.91;5076792;28;64345;-78
2023/12/17 01:55:01;;;;;;;;;0.00;0.00;;;;;7.19;100.00;103838.28;5076746;28;68907;-78
2023/12/17 01:57:26;;;;;;;;;0.00;0.00;;;;;7.16;100.00;103831.25;5077140;28;45877;-79
2023/12/17 01:59:51;;;;;;;;;0.00;0.00;;;;;7.15;100.00;103828.59;5058636;28;69471;-78
2023/12/17 02:02:17;;;;;;;;;12.75;12.75;;;;;7.12;100.00;103832.00;5058735;28;69374;-78
2023/12/17 02:04:42;;;;;;;;;0.00;0.00;;;;;7.09;100.00;103833.59;5077753;28;45330;-78
2023/12/17 02:07:07;;;;;;;;;0.00;0.00;;;;;7.04;100.00;103830.84;5076614;28;68468;-78
2023/12/17 02:09:33;;;;;;;;;0.00;0.00;;;;;7.05;100.00;103834.31;5076947;28;62705;-78
2023/12/17 02:11:58;;;;;;;;;0.00;0.00;;;;;7.02;100.00;103831.59;5043817;28;68282;-79
2023/12/17 02:14:23;;;;;;;;;0.00;0.00;;;;;6.98;100.00;103828.03;5038408;28;69368;-78
2023/12/17 02:16:49;;;;;;;;;0.00;0.00;;;;;6.95;100.00;103827.94;5038783;28;47010;-79
2023/12/17 02:19:14;;;;;;;;;0.00;0.00;;;;;6.92;100.00;103831.28;5029180;28;74696;-78
2023/12/17 02:21:39;;;;;;;;;0.00;0.00;;;;;6.91;100.00;103829.53;5058388;28;66717;-78
2023/12/17 02:24:05;;;;;;;;;0.00;0.00;;;;;6.90;100.00;103822.56;5058998;28;45353;-78
2023/12/17 02:26:30;;;;;;;;;0.00;0.00;;;;;6.87;100.00;103812.13;5058701;28;46040;-79
2023/12/17 02:28:55;;;;;;;;;0.00;0.00;;;;;6.87;100.00;103813.81;5075886;27;72218;-79
2023/12/17 02:31:21;;;;;;;;;0.00;0.00;;;;;6.84;100.00;103808.53;5057772;28;67246;-78
2023/12/17 02:33:46;;;;;;;;;0.00;0.00;;;;;6.81;100.00;103803.25;5076874;28;69664;-78
2023/12/17 02:36:12;;;;;;;;;0.00;0.00;;;;;6.80;100.00;103802.38;5076896;28;46272;-78
2023/12/17 02:38:37;;;;;;;;;0.00;0.00;;;;;6.82;100.00;103797.25;5076706;28;46102;-78
2023/12/17 02:41:02;;;;;;;;;0.00;0.00;;;;;6.79;100.00;103790.25;5057497;28;64226;-78
2023/12/17 02:43:28;;;;;;;;;0.00;0.00;;;;;6.76;100.00;103793.63;5076653;28;45448;-79
2023/12/17 02:45:53;;;;;;;;;0.00;0.00;;;;;6.73;100.00;103784.84;5057555;28;75562;-78
2023/12/17 02:48:18;;;;;;;;;0.00;0.00;;;;;6.69;100.00;103783.88;5057214;28;72047;-79
2023/12/17 02:50:44;;;;;;;;;0.00;0.00;;;;;6.67;100.00;103782.94;5058698;28;45413;-78
2023/12/17 02:53:09;;;;;;;;;0.00;0.00;;;;;6.66;100.00;103782.88;5076123;28;57083;-78
2023/12/17 02:55:35;;;;;;;;;0.00;0.00;;;;;6.64;100.00;103774.16;5075250;28;76457;-78
2023/12/17 02:58:03;;;;;;;;;0.00;0.00;;;;;6.63;100.00;103781.06;5076221;28;45430;-78
2023/12/17 03:00:28;;;;;;;;;0.00;0.00;;;;;6.65;100.00;103774.22;5077275;28;45326;-78
2023/12/17 03:02:54;;;;;;;;;0.00;0.00;;;;;6.60;100.00;103770.59;5076569;28;58402;-78
2023/12/17 03:05:19;;;;;;;;;0.00;0.00;;;;;6.57;100.00;103753.25;5072920;28;75239;-77
2023/12/17 03:07:44;;;;;;;;;0.00;0.00;;;;;6.56;100.00;103753.19;5057044;28;68460;-78
2023/12/17 03:10:10;;;;;;;;;1.50;1.50;;;;;6.54;100.00;103747.06;5075208;28;68133;-78
2023/12/17 03:12:35;;;;;;;;;0.00;0.00;;;;;6.54;100.00;103741.91;5056677;28;55432;-78
2023/12/17 03:15:00;;;;;;;;;0.00;0.00;;;;;6.52;100.00;103730.59;5075832;28;45439;-78
2023/12/17 03:17:26;;;;;;;;;0.00;0.00;;;;;6.53;100.00;103735.81;5075717;28;72170;-78
2023/12/17 03:19:51;;;;;;;;;0.00;0.00;;;;;6.50;100.00;103730.56;5076157;28;45427;-78
2023/12/17 03:22:16;;;;;;;;;1.00;1.00;;;;;6.49;100.00;103726.19;5058047;28;45469;-78
2023/12/17 03:24:42;;;;;;;;;0.00;0.00;;;;;6.46;100.00;103717.44;5075019;28;66430;-78
2023/12/17 03:27:07;;;;;;;;;0.00;0.00;;;;;6.45;100.00;103713.97;5075153;28;73080;-78
2023/12/17 03:29:32;;;;;;;;;0.00;0.00;;;;;6.43;100.00;103725.13;5075227;28;69206;-79
2023/12/17 03:31:58;;;;;;;;;0.00;0.00;;;;;6.44;100.00;103719.09;5075883;28;45419;-78
2023/12/17 03:34:23;;;;;;;;;0.00;0.00;;;;;6.41;100.00;103714.69;5075780;28;46950;-78
2023/12/17 03:36:48;;;;;;;;;0.00;0.00;;;;;6.39;100.00;103714.63;5058011;28;46669;-78
2023/12/17 03:39:14;;;;;;;;;0.00;0.00;;;;;6.41;100.00;103714.69;5057727;28;45348;-78
2023/12/17 03:41:39;;;;;;;;;0.00;0.00;;;;;6.41;100.00;103717.28;5056866;28;70617;-78
2023/12/17 03:44:04;;;;;;;;;0.00;0.00;;;;;6.40;100.00;103713.78;5069036;28;72714;-78
2023/12/17 03:46:30;;;;;;;;;0.00;0.00;;;;;6.42;100.00;103716.44;5055727;28;45477;-77
2023/12/17 03:48:55;;;;;;;;;0.00;0.00;;;;;6.40;100.00;103710.34;5055909;28;45336;-78
2023/12/17 03:51:20;;;;;;;;;0.00;0.00;;;;;6.42;100.00;103705.22;5055294;28;54950;-79
2023/12/17 03:53:46;;;;;;;;;0.00;0.00;;;;;6.42;100.00;103707.81;5068126;28;74457;-78
2023/12/17 03:56:13;;;;;;;;;0.00;0.00;;;;;6.41;100.00;103696.59;5056899;28;72059;-78
2023/12/17 03:58:39;;;;;;;;;0.00;0.00;;;;;6.42;100.00;103700.91;5075765;28;45335;-79
2023/12/17 04:01:06;;;;;;;;;0.00;0.00;;;;;6.42;100.00;103700.91;5075903;28;45331;-78
2023/12/17 04:03:31;;;;;;;;;0.00;0.00;;;;;6.43;100.00;103696.66;5057092;28;46060;-78
2023/12/17 04:05:58;;;;;;;;;2.00;2.00;;;;;6.40;100.00;103692.22;5075916;28;45472;-78
2023/12/17 04:08:23;;;;;;;;;0.75;0.75;;;;;6.38;100.00;103694.75;5057449;28;45508;-79
2023/12/17 04:10:49;;;;;;;;;0.00;0.00;;;;;6.38;100.00;103692.16;5057880;28;45546;-78
2023/12/17 04:13:14;;;;;;;;;0.00;0.00;;;;;6.37;100.00;103695.59;5074713;28;75679;-78
2023/12/17 04:15:39;;;;;;;;;0.00;0.00;;;;;6.36;100.00;103699.00;5056554;28;60872;-78
2023/12/17 04:18:04;;;;;;;;;0.00;0.00;;;;;6.34;100.00;103697.19;5074465;28;68909;-78
2023/12/17 04:20:30;;;;;;;;;0.00;0.00;;;;;6.32;100.00;103691.09;5056579;28;57580;-78
2023/12/17 04:22:55;;;;;;;;;0.00;0.00;;;;;6.31;100.00;103686.72;5073908;28;74104;-79
2023/12/17 04:25:20;;;;;;;;;12.00;12.00;;;;;6.28;100.00;103689.19;5074934;28;61612;-79
2023/12/17 04:27:46;;;;;;;;;0.00;0.00;;;;;6.28;100.00;103686.59;5075504;28;45388;-78
2023/12/17 04:30:11;;;;;;;;;0.00;0.00;;;;;6.26;100.00;103689.16;5074591;28;70446;-77
2023/12/17 04:32:37;;;;;;;;;0.00;0.00;;;;;6.22;100.00;103682.09;5075385;28;46933;-78
2023/12/17 04:35:03;;;;;;;;;0.00;0.00;;;;;6.23;100.00;103683.00;5057042;28;60262;-78
2023/12/17 04:37:29;;;;;;;;;0.00;0.00;;;;;6.19;100.00;103680.28;5057107;28;45297;-78
2023/12/17 04:39:54;;;;;;;;;0.00;0.00;;;;;6.19;100.00;103684.56;5075394;28;45230;-78
2023/12/17 04:42:19;;;;;;;;;0.00;0.00;;;;;6.17;100.00;103681.06;5039196;28;73341;-78
2023/12/17 04:44:45;;;;;;;;;0.00;0.00;;;;;6.14;100.00;103683.53;5073994;28;72772;-78
2023/12/17 04:47:10;;;;;;;;;0.00;0.00;;;;;6.16;100.00;103684.47;5074652;28;59517;-78
2023/12/17 04:49:36;;;;;;;;;0.00;0.00;;;;;6.15;100.00;103677.53;5075381;28;45273;-78
2023/12/17 04:52:01;;;;;;;;;0.00;0.00;;;;;6.14;100.00;103686.13;5073936;28;69302;-78
2023/12/17 04:54:27;;;;;;;;;0.00;0.00;;;;;6.14;100.00;103683.53;5077589;28;45321;-78
2023/12/17 04:56:54;;;;;;;;;0.00;0.00;;;;;6.13;100.00;103674.88;5060575;28;45357;-78
2023/12/17 04:59:20;;;;;;;;;0.00;0.00;;;;;6.16;100.00;103676.69;5078686;28;45400;-78
2023/12/17 05:01:45;;;;;;;;;0.00;0.00;;;;;6.15;100.00;103678.41;5078536;28;46744;-78
2023/12/17 05:04:11;;;;;;;;;0.00;0.00;;;;;6.15;100.00;103677.53;5077734;28;68011;-78
2023/12/17 05:06:36;;;;;;;;;0.00;0.00;;;;;6.15;100.00;103670.66;5064353;28;59071;-78
2023/12/17 05:09:01;;;;;;;;;0.00;0.00;;;;;6.15;100.00;103673.25;5039277;28;65308;-78
2023/12/17 05:11:27;;;;;;;;;0.00;0.00;;;;;6.15;100.00;103670.66;5063625;28;61185;-78
2023/12/17 05:13:52;;;;;;;;;0.00;0.00;;;;;6.16;100.00;103669.81;5077232;28;67647;-79
2023/12/17 05:16:17;;;;;;;;;0.00;0.00;;;;;6.17;100.00;103679.34;5077468;28;69218;-78
2023/12/17 05:18:43;;;;;;;;;0.00;0.00;;;;;6.21;100.00;103677.75;5077887;28;49753;-78
2023/12/17 05:21:08;;;;;;;;;0.00;0.00;;;;;6.17;100.00;103681.94;5077282;28;45442;-79
2023/12/17 05:23:33;;;;;;;;;0.00;0.00;;;;;6.18;100.00;103677.63;5059073;28;73078;-79
2023/12/17 05:25:59;;;;;;;;;0.00;0.00;;;;;6.18;100.00;103678.53;5077460;28;69225;-79
2023/12/17 05:28:24;;;;;;;;;0.00;0.00;;;;;6.19;100.00;103680.28;5058912;28;69603;-79
2023/12/17 05:30:49;;;;;;;;;0.00;0.00;;;;;6.19;100.00;103689.75;5076883;28;74581;-79
2023/12/17 05:33:15;;;;;;;;;0.00;0.00;;;;;6.17;100.00;103692.28;5058671;28;73189;-79
2023/12/17 05:35:42;;;;;;;;;0.00;0.00;;;;;6.16;100.00;103693.09;5078061;28;45309;-78
2023/12/17 05:38:07;;;;;;;;;3.00;3.00;;;;;6.14;100.00;103699.03;5060328;28;45424;-78
2023/12/17 05:40:32;;;;;;;;;0.00;0.00;;;;;6.10;100.00;103684.25;5059336;28;46196;-78
2023/12/17 05:42:58;;;;;;;;;0.00;0.00;;;;;6.07;100.00;103689.28;5076860;28;71777;-78
2023/12/17 05:45:23;;;;;;;;;0.00;0.00;;;;;6.08;100.00;103688.47;5077161;28;64753;-79
2023/12/17 05:47:48;;;;;;;;;0.00;0.00;;;;;6.07;100.00;103686.69;5058792;28;68025;-78
2023/12/17 05:50:13;;;;;;;;;0.00;0.00;;;;;6.08;100.00;103693.66;5076313;28;75445;-78
2023/12/17 05:52:40;;;;;;;;;0.00;0.00;;;;;6.08;100.00;103691.94;5059146;28;59750;-78
2023/12/17 05:55:06;;;;;;;;;0.00;0.00;;;;;6.07;100.00;103695.34;5059860;28;45405;-78
2023/12/17 05:57:33;;;;;;;;;0.00;0.00;;;;;6.07;100.00;103691.88;5042886;28;45423;-78
2023/12/17 05:59:58;;;;;;;;;0.00;0.00;;;;;6.09;100.00;103693.72;5042763;28;47411;-78
2023/12/17 06:02:23;;;;;;;;;0.00;0.00;;;;;6.11;100.00;103692.06;5058690;28;69080;-78
2023/12/17 06:04:49;;;;;;;;;0.00;0.00;;;;;6.13;100.00;103694.69;5058048;28;69260;-78
2023/12/17 06:07:14;;;;;;;;;0.00;0.00;;;;;6.13;100.00;103689.50;5041935;28;54916;-78
2023/12/17 06:09:40;;;;;;;;;0.00;0.00;;;;;6.15;100.00;103695.66;5059291;28;45362;-78
2023/12/17 06:12:06;;;;;;;;;0.00;0.00;;;;;6.12;100.00;103692.94;5059025;28;45371;-78
2023/12/17 06:14:31;;;;;;;;;0.00;0.00;;;;;6.12;100.00;103692.94;5077928;28;45186;-78
2023/12/17 06:16:56;;;;;;;;;0.00;0.00;;;;;6.09;100.00;103691.13;5077106;28;50285;-78
2023/12/17 06:19:22;;;;;;;;;0.00;0.00;;;;;6.11;100.00;103694.66;5075903;28;74235;-78
2023/12/17 06:21:47;;;;;;;;;0.00;0.00;;;;;6.08;100.00;103688.47;5076769;28;46154;-78
2023/12/17 06:24:13;;;;;;;;;0.00;0.00;;;;;6.06;100.00;103691.00;5076731;28;66460;-78
2023/12/17 06:26:38;;;;;;;;;0.00;0.00;;;;;6.04;100.00;103705.59;5077233;28;45479;-78
2023/12/17 06:29:04;;;;;;;;;0.00;0.00;;;;;6.03;100.00;103705.53;5076983;28;58788;-79
2023/12/17 06:31:30;;;;;;;;;0.00;0.00;;;;;6.00;100.00;103699.41;5076315;28;45507;-77
2023/12/17 06:33:55;;;;;;;;;0.00;0.00;;;;;5.96;100.00;103700.13;5077225;28;45445;-79
2023/12/17 06:36:20;;;;;;;;;0.00;0.00;;;;;5.95;100.00;103702.63;5077245;28;45375;-79
2023/12/17 06:38:46;;;;;;;;;0.00;0.00;;;;;5.91;100.00;103691.28;5077466;28;46237;-78
2023/12/17 06:41:12;;;;;;;;;0.00;0.00;;;;;5.92;100.00;103694.72;5059443;28;45496;-78
2023/12/17 06:43:39;;;;;;;;;0.00;0.00;;;;;5.90;100.00;103691.22;5077851;28;45426;-78
2023/12/17 06:46:06;;;;;;;;;0.00;0.00;;;;;5.89;100.00;103695.50;5076670;28;45300;-79
2023/12/17 06:48:35;;;;;;;;;0.00;0.00;;;;;5.88;100.00;103700.63;5076837;28;47456;-78
2023/12/17 06:51:01;;;;;;;;;0.00;0.00;;;;;5.85;100.00;103697.91;5058381;28;45450;-78
2023/12/17 06:53:26;;;;;;;;;0.00;0.00;;;;;5.81;100.00;103692.63;5076992;28;45434;-79
2023/12/17 06:55:52;;;;;;;;;0.00;0.00;;;;;5.83;100.00;103700.44;5058976;28;45778;-78
2023/12/17 06:58:17;;;;;;;;;0.00;0.00;;;;;5.80;100.00;103698.63;5075934;28;75870;-79
2023/12/17 07:00:42;;;;;;;;;0.00;0.00;;;;;5.78;100.00;103700.28;5075979;28;45433;-79
2023/12/17 07:03:08;;;;;;;;;0.00;0.00;;;;;5.80;100.00;103697.75;5047082;28;67987;-79
2023/12/17 07:05:33;;;;;;;;;0.00;0.00;;;;;5.88;100.00;103701.50;5073080;28;54847;-78
2023/12/17 07:07:58;;;;;;;;;0.00;0.00;;;;;5.86;100.00;103703.13;5056905;28;74240;-78
2023/12/17 07:10:24;;;;;;;;;0.00;0.00;;;;;5.84;100.00;103697.03;5075183;28;72129;-78
2023/12/17 07:12:49;;;;;;;;;0.00;0.00;;;;;5.89;100.00;103698.09;5071324;28;49558;-78
2023/12/17 07:15:14;;;;;;;;;0.00;0.00;;;;;5.92;100.00;103703.38;5076354;28;45313;-78
2023/12/17 07:17:40;;;;;;;;;0.00;0.00;;;;;5.94;100.00;103695.66;5057094;28;62176;-78
2023/12/17 07:20:06;;;;;;;;;0.00;0.00;;;;;5.92;100.00;103695.59;5075969;28;45399;-78
2023/12/17 07:22:31;;;;;;;;;0.00;0.00;;;;;5.89;100.00;103692.03;5075166;28;45546;-78
2023/12/17 07:24:56;;;;;;;;;0.00;0.00;;;;;5.90;100.00;103691.22;5075452;28;45644;-78
2023/12/17 07:27:22;;;;;;;;;0.00;0.00;;;;;5.89;100.00;103692.03;5055883;28;48568;-78
2023/12/17 07:29:47;;;;;;;;;0.00;0.00;;;;;5.87;100.00;103692.00;5074768;28;71719;-78
2023/12/17 07:32:12;;;;;;;;;0.00;0.00;;;;;5.85;100.00;103687.56;5041190;28;45326;-79
2023/12/17 07:34:38;;;;;;;;;0.00;0.00;;;;;5.84;100.00;103689.28;5056403;28;66218;-79
2023/12/17 07:37:03;;;;;;;;;0.00;0.00;;;;;5.82;100.00;103675.41;5056875;28;74978;-77
2023/12/17 07:39:28;;;;;;;;;0.00;0.00;;;;;5.82;100.00;103683.16;5056182;28;71628;-80
2023/12/17 07:41:54;;;;;;;;;0.00;0.00;;;;;5.79;100.00;103678.78;5074796;28;65805;-79
2023/12/17 07:44:19;;;;;;;;;0.00;0.00;;;;;5.82;100.00;103680.59;5056082;28;60187;-79
2023/12/17 07:46:44;;;;;;;;;0.00;0.00;;;;;5.75;100.00;103679.47;5039833;28;74798;-79
2023/12/17 07:49:10;;;;;;;;;0.00;0.00;;;;;5.72;100.00;103675.88;5037318;28;45710;-79
2023/12/17 07:51:38;;;;;;;;;0.00;0.00;;;;;5.72;100.00;103684.53;5056771;28;45550;-79
2023/12/17 07:54:03;;;;;;;;;0.00;0.00;;;;;5.71;100.00;103671.53;5075579;28;45474;-79
2023/12/17 07:56:28;;;;;;;;;0.00;0.00;;;;;5.72;100.00;103676.78;5057598;28;46692;-79
2023/12/17 07:58:54;;;;;;;;;0.00;0.00;;;;;5.74;100.00;103676.81;5055873;28;64620;-79
2023/12/17 08:01:29;;;;;;;;;0.00;0.00;;;;;5.74;100.00;103679.41;5074130;28;52306;-80
2023/12/17 08:03:54;;;;;;;;;0.00;0.00;;;;;5.72;100.00;103678.47;5075899;28;45288;-79
2023/12/17 08:06:20;;;;;;;;;0.00;0.00;;;;;5.73;100.00;103675.06;5064917;28;45471;-80
2023/12/17 08:08:45;;;;;;;;;0.00;0.00;;;;;5.75;100.00;103681.16;5068359;28;71766;-80
2023/12/17 08:11:12;;;;;;;;;0.00;0.00;;;;;5.75;100.00;103678.59;5075190;28;61096;-78
2023/12/17 08:13:37;;;;;;;;;0.00;0.00;;;;;5.78;100.00;103679.59;5057185;28;45305;-78
2023/12/17 08:16:03;;;;;;;;;0.00;0.00;;;;;5.81;100.00;103674.53;5074749;28;70659;-78
2023/12/17 08:18:28;;;;;;;;;0.00;0.00;;;;;5.82;100.00;103678.00;5040374;28;45369;-78
2023/12/17 08:20:54;;;;;;;;;0.00;0.00;;;;;5.87;100.00;103686.81;5074551;28;69801;-79
2023/12/17 08:23:19;;;;;;;;;1.00;1.00;;;;;5.90;100.00;103686.03;5075714;28;45437;-78
2023/12/17 08:25:44;;;;;;;;;0.00;0.00;;;;;5.91;100.00;103680.94;5074827;28;65682;-78
2023/12/17 08:28:10;;;;;;;;;0.00;0.00;;;;;5.94;100.00;103690.50;5058890;28;45419;-79
2023/12/17 08:30:39;;;;;;;;;4.67;4.67;;;;;5.97;100.00;103690.66;5077215;28;69324;-79
2023/12/17 08:33:05;;;;;;;;;0.00;0.00;;;;;5.97;100.00;103688.94;5073026;28;45479;-78
2023/12/17 08:35:31;;;;;;;;;0.00;0.00;;;;;6.01;100.00;103679.59;5076244;28;47105;-79
2023/12/17 08:38:03;;;;;;;;;0.00;0.00;;;;;6.04;100.00;103676.25;5059958;28;45491;-78
2023/12/17 08:40:28;;;;;;;;;0.00;0.00;;;;;6.07;100.00;103672.06;5078939;28;45318;-79
2023/12/17 08:42:54;;;;;;;;;0.00;0.00;;;;;6.10;100.00;103679.06;5078517;28;45540;-79
2023/12/17 08:45:19;;;;;;;;;0.00;0.00;;;;;6.12;100.00;103672.25;5077340;28;75467;-78
2023/12/17 08:47:44;;;;;;;;;0.00;0.00;;;;;6.14;100.00;103679.22;5060216;28;53729;-78
2023/12/17 08:50:10;;;;;;;;;0.00;0.00;;;;;6.18;100.00;103675.03;5077899;28;69273;-79
2023/12/17 08:52:36;;;;;;;;;0.00;0.00;;;;;6.17;100.00;103681.94;5076143;28;45597;-79
2023/12/17 08:55:02;;;;;;;;;1.00;1.00;;;;;6.24;100.00;103676.97;5078550;28;46553;-80
2023/12/17 08:57:27;;;;;;;;;0.00;0.00;;;;;6.25;100.00;103676.16;5057856;28;45878;-79
2023/12/17 08:59:52;;;;;;;;;0.00;0.00;;;;;6.29;100.00;103675.44;5076294;28;69960;-78
2023/12/17 09:02:18;;;;;;;;;0.00;0.00;;;;;6.32;100.00;103675.56;5077370;28;70260;-78
2023/12/17 09:04:43;;;;;;;;;0.00;0.00;;;;;6.34;100.00;103679.06;5077285;28;64404;-79
2023/12/17 09:07:08;;;;;;;;;0.00;0.00;;;;;6.37;100.00;103681.75;5072316;28;45308;-79
2023/12/17 09:09:34;;;;;;;;;10.00;10.00;;;;;6.40;100.00;103677.56;5058910;28;45332;-79
2023/12/17 09:12:00;;;;;;;;;0.00;0.00;;;;;6.44;100.00;103668.22;5077078;28;45321;-79
2023/12/17 09:14:25;;;;;;;;;0.00;0.00;;;;;6.46;100.00;103671.72;5076602;28;74400;-79
2023/12/17 09:16:50;;;;;;;;;1.00;1.00;;;;;6.51;100.00;103670.19;5058449;28;70825;-79
2023/12/17 09:19:16;;;;;;;;;4.00;4.00;;;;;6.52;100.00;103663.28;5076044;28;65070;-79
2023/12/17 09:21:41;;;;;;;;;21.67;21.67;;;;;6.57;100.00;103664.34;5075728;28;71428;-79
2023/12/17 09:24:06;;;;;;;;;0.00;0.00;;;;;6.59;100.00;103658.41;5076242;28;46723;-78
2023/12/17 09:26:32;;;;;;;;;0.00;0.00;;;;;6.65;100.00;103665.50;5076378;28;45300;-78
2023/12/17 09:28:57;;;;;;;;;0.00;0.00;;;;;6.67;100.00;103660.38;5078035;28;45469;-78
2023/12/17 09:31:22;;;;;;;;;0.00;0.00;;;;;6.74;100.00;103678.78;5057708;28;69205;-79
2023/12/17 09:33:48;;;;;;;;;0.00;0.00;;;;;6.80;100.00;103672.91;5072140;28;74439;-78
2023/12/17 09:36:15;;;;;;;;;0.00;0.00;;;;;6.84;100.00;103677.38;5067843;28;73076;-78
2023/12/17 09:38:42;;;;;;;;;0.00;0.00;;;;;6.90;100.00;103674.97;5067015;28;45427;-78
2023/12/17 09:41:08;;;;;;;;;0.00;0.00;;;;;6.96;100.00;103676.88;5049603;28;45467;-78
2023/12/17 09:43:33;;;;;;;;;0.00;0.00;;;;;6.99;100.00;103671.81;5045392;28;45491;-80
2023/12/17 09:45:59;;;;;;;;;0.00;0.00;;;;;7.04;100.00;103671.94;5053557;28;57564;-81
2023/12/17 09:48:25;;;;;;;;;0.00;0.00;;;;;7.09;100.00;103672.97;5061642;28;45582;-80
2023/12/17 09:50:50;;;;;;;;;0.00;0.00;;;;;7.10;100.00;103669.56;5053346;28;45414;-79
2023/12/17 09:53:15;;;;;;;;;0.00;0.00;;;;;7.13;100.00;103665.38;5046532;28;75591;-79
2023/12/17 09:55:41;;;;;;;;;0.00;0.00;;;;;7.17;100.00;103675.00;5073962;28;68390;-79
2023/12/17 09:58:06;;;;;;;;;0.00;0.00;;;;;7.22;100.00;103669.09;5060369;28;45417;-80
2023/12/17 10:00:32;;;;;;;;;0.00;0.00;;;;;7.26;100.00;103668.34;5060663;28;45548;-80
2023/12/17 10:03:04;;;;;;;;;0.00;0.00;;;;;7.30;100.00;103673.69;5079382;28;46232;-80
2023/12/17 10:05:30;;;;;;;;;0.00;0.00;;;;;7.34;100.00;103669.47;5073843;28;45383;-80
2023/12/17 10:07:55;;;;;;;;;0.00;0.00;;;;;7.38;100.00;103667.88;5039597;28;45369;-80
2023/12/17 10:10:21;;;;;;;;;0.00;0.00;;;;;7.40;100.00;103668.78;5057047;28;45412;-80
2023/12/17 10:12:47;;;;;;;;;0.00;0.00;;;;;7.45;100.00;103664.66;5056152;28;75546;-80
2023/12/17 10:15:12;;;;;;;;;0.00;0.00;;;;;7.50;100.00;103663.94;5039323;28;45346;-80
2023/12/17 10:17:38;;;;;;;;;0.00;0.00;;;;;7.52;100.00;103664.88;5039442;28;45377;-80
2023/12/17 10:20:03;;;;;;;;;0.00;0.00;;;;;7.60;100.00;103659.03;5038883;28;45410;-80
2023/12/17 10:22:29;;;;;;;;;0.00;0.00;;;;;7.68;100.00;103662.75;5057051;28;47612;-80
2023/12/17 10:24:54;;;;;;;;;0.00;0.00;;;;;7.71;100.00;103657.66;5037807;28;73588;-80
2023/12/17 10:27:20;;;;;;;;;0.00;0.00;;;;;7.79;100.00;103644.91;5056388;28;69484;-80
2023/12/17 10:29:49;;;;;;;;;0.00;0.00;;;;;7.88;100.00;103643.44;5056938;28;45380;-81
2023/12/17 10:32:14;;;;;;;;;2.25;2.25;;;;;8.01;100.00;103647.28;5038950;28;47150;-80
2023/12/17 10:34:40;;;;;;;;;0.00;0.00;;;;;8.08;100.00;103641.44;5055966;28;72523;-80
2023/12/17 10:37:06;;;;;;;;;0.00;0.00;;;;;8.16;100.00;103644.22;5057061;28;45442;-81
2023/12/17 10:39:33;;;;;;;;;27.00;27.00;;;;;8.25;100.00;103644.50;5038618;28;45488;-81
2023/12/17 10:41:59;;;;;;;;;0.00;0.00;;;;;8.37;100.00;103633.53;5038506;28;49839;-80
2023/12/17 10:44:26;;;;;;;;;9.00;9.00;;;;;8.52;100.00;103634.00;5047072;28;45353;-81
2023/12/17 10:46:53;;;;;;;;;0.00;0.00;;;;;8.66;100.00;103626.56;5042199;28;45369;-80
2023/12/17 10:49:19;;;;;;;;;0.00;0.00;;;;;8.83;100.00;103626.09;5042027;28;45558;-81
2023/12/17 10:51:45;;;;;;;;;0.00;0.00;;;;;9.06;100.00;103611.94;5057509;28;46177;-81
2023/12/17 10:54:13;;;;;;;;;0.00;0.00;;;;;9.34;100.00;103609.06;5057425;28;67154;-81
2023/12/17 10:56:41;;;;;;;;;0.00;0.00;;;;;11.13;100.00;103605.47;5059291;28;45307;-81
2023/12/17 10:59:24;;;;;;;;;0.00;0.00;;;;;14.51;100.00;103597.53;5058804;28;45459;-81
2023/12/17 11:01:50;;;;;;;;;0.00;0.00;;;;;16.82;100.00;103591.28;5058651;28;45428;-81
2023/12/17 11:04:15;;;;;;;;;0.00;0.00;;;;;18.67;100.00;103591.41;5058649;28;45488;-81
2023/12/17 11:06:41;;;;;;;;;0.00;0.00;;;;;20.38;94.58;103593.09;5040816;28;68274;-81
2023/12/17 11:09:06;;;;;;;;;0.00;0.00;;;;;21.55;84.26;103592.59;5041468;28;45398;-81
2023/12/17 11:11:32;;;;;;;;;0.00;0.00;;;;;21.75;81.79;103584.03;5075862;28;67618;-81
2023/12/17 11:13:58;;;;;;;;;0.00;0.00;;;;;22.17;80.78;103583.56;5058327;28;45518;-82
2023/12/17 11:16:25;;;;;;;;;3.75;3.75;;;;;22.40;76.23;103582.84;5076719;28;45393;-82